Time;durP1;ratioP1;P1;durP2;ratioP2;P2;SDS_P1;SDS_P2;PMS_P1;PMS_P2;Temp;Humidity;BMP_temperature;BMP_pressure;BME280_temperature;BME280_humidity;BME280_pressure;Samples;Min_cycle;Max_cycle;Signal;HPM_P1;HPM_P2
2024/01/17 04:53:27;;;;;;;;;;;-3.00;99.90;;;;;;5369313;23;19995;-75
2024/01/17 04:55:54;;;;;;;;;;;-2.20;99.90;;;;;;4978000;28;20006;-75
2024/01/17 04:58:20;;;;;;;;;;;-2.20;99.90;;;;;;4977813;28;19926;-75
2024/01/17 05:00:47;;;;;;;;;;;-2.20;99.90;;;;;;4977828;28;19949;-75
2024/01/17 05:03:14;;;;;;;;;;;-2.10;99.90;;;;;;4977819;28;19973;-74
2024/01/17 05:05:41;;;;;;;;;;;-2.10;99.90;;;;;;4977729;28;19957;-76
2024/01/17 05:08:08;;;;;;;;;;;-2.10;99.90;;;;;;4999670;23;19930;-72
2024/01/17 05:10:36;;;;;;;;;;;-2.10;99.90;;;;;;4978056;28;19926;-72
2024/01/17 05:13:02;;;;;;;;;;;-2.00;99.90;;;;;;4977723;28;19926;-72
2024/01/17 05:15:29;;;;;;;;;;;-2.00;99.90;;;;;;4977730;28;19930;-74
2024/01/17 05:17:55;;;;;;;;;;;-2.00;99.90;;;;;;4977841;28;19926;-74
2024/01/17 05:20:22;;;;;;;;;;;-2.00;99.90;;;;;;4977741;28;19926;-74
2024/01/17 05:22:48;;;;;;;;;;;-1.90;99.90;;;;;;4977594;28;19927;-73
2024/01/17 05:25:15;;;;;;;;;;;-1.90;99.90;;;;;;4978058;28;19926;-73
2024/01/17 05:27:50;;;;;;;;;;;-1.80;99.90;;;;;;4975900;28;20471;-73
2024/01/17 05:30:16;;;;;;;;;;;-1.80;99.90;;;;;;4977457;28;19926;-74
2024/01/17 05:32:43;;;;;;;;;;;-1.80;99.90;;;;;;4977342;28;20442;-74
2024/01/17 05:35:09;;;;;;;;;;;-1.70;99.90;;;;;;4977176;28;20391;-74
2024/01/17 05:37:38;;;;;;;;;;;-1.60;99.90;;;;;;4977417;28;19926;-74
2024/01/17 05:40:05;;;;;;;;;;;-1.60;99.90;;;;;;4976861;28;19969;-74
2024/01/17 05:42:31;;;;;;;;;;;-1.60;99.90;;;;;;4977100;28;19925;-75
2024/01/17 05:44:59;;;;;;;;;;;-1.50;99.90;;;;;;4977430;28;19926;-73
2024/01/17 05:47:26;;;;;;;;;;;-1.50;99.90;;;;;;4976984;28;19926;-74
2024/01/17 05:49:53;;;;;;;;;;;-1.50;99.90;;;;;;4976989;28;19926;-73
2024/01/17 05:52:19;;;;;;;;;;;-1.50;99.90;;;;;;4977098;28;19926;-74
2024/01/17 05:54:46;;;;;;;;;;;-1.40;99.90;;;;;;4976853;28;19981;-70
2024/01/17 05:57:12;;;;;;;;;;;-1.40;99.90;;;;;;4976699;28;19941;-69
2024/01/17 05:59:39;;;;;;;;;;;-1.40;99.90;;;;;;4976796;28;19926;-69
2024/01/17 06:02:07;;;;;;;;;;;-1.30;99.90;;;;;;4977084;28;20017;-74
2024/01/17 06:04:34;;;;;;;;;;;-1.20;99.90;;;;;;4976498;28;19930;-74
2024/01/17 06:07:00;;;;;;;;;;;-1.20;99.90;;;;;;4976545;28;19930;-75
2024/01/17 06:09:27;;;;;;;;;;;-0.60;99.90;;;;;;4976794;28;19934;-75
2024/01/17 06:11:54;;;;;;;;;;;-1.00;99.90;;;;;;4976743;28;19961;-75
2024/01/17 06:14:20;;;;;;;;;;;-1.00;99.90;;;;;;4976644;28;19926;-74
2024/01/17 06:16:47;;;;;;;;;;;-1.00;99.90;;;;;;4976495;28;19960;-74
2024/01/17 06:19:16;;;;;;;;;;;-0.90;99.90;;;;;;4976393;28;20017;-73
2024/01/17 06:21:43;;;;;;;;;;;-0.90;99.90;;;;;;4976126;28;20458;-75
2024/01/17 06:24:09;;;;;;;;;;;-0.90;99.90;;;;;;4976686;28;19930;-76
2024/01/17 06:26:38;;;;;;;;;;;-0.80;99.90;;;;;;4976101;28;20391;-75
2024/01/17 12:04:00;;;;;;;;;;;1.90;99.90;;;;;;5306832;23;19926;-73
2024/01/17 12:06:26;;;;;;;;;;;2.00;99.90;;;;;;4974977;28;19977;-73
2024/01/17 12:08:54;;;;;;;;;;;2.10;99.90;;;;;;4977243;28;19933;-73
2024/01/17 12:11:22;;;;;;;;;;;2.10;99.90;;;;;;4986489;28;19934;-73
2024/01/17 12:13:52;;;;;;;;;;;2.20;99.90;;;;;;4986167;28;19930;-73
2024/01/17 12:16:21;;;;;;;;;;;2.10;99.90;;;;;;4977444;28;19926;-73
2024/01/17 12:18:56;;;;;;;;;;;2.10;99.90;;;;;;4975488;28;19926;-73
2024/01/17 12:21:24;;;;;;;;;;;2.10;99.90;;;;;;4975583;28;19926;-74
2024/01/17 12:23:51;;;;;;;;;;;2.30;99.90;;;;;;4976059;28;19926;-74
2024/01/17 12:26:18;;;;;;;;;;;2.30;99.90;;;;;;4975516;28;20391;-74
2024/01/17 12:28:46;;;;;;;;;;;2.40;99.90;;;;;;4975530;28;19992;-74
2024/01/17 12:31:15;;;;;;;;;;;2.50;99.90;;;;;;4975307;28;19933;-74
2024/01/17 12:33:42;;;;;;;;;;;2.50;99.90;;;;;;4974939;28;20004;-74
2024/01/17 12:36:09;;;;;;;;;;;2.50;99.90;;;;;;4975525;28;19932;-73
2024/01/17 12:38:39;;;;;;;;;;;2.60;99.90;;;;;;4978327;28;20391;-74
2024/01/17 12:41:07;;;;;;;;;;;2.60;99.90;;;;;;4979495;28;19926;-73
2024/01/17 12:43:35;;;;;;;;;;;2.60;99.90;;;;;;4978753;28;19934;-74
2024/01/17 12:46:02;;;;;;;;;;;2.60;99.90;;;;;;4978992;28;19930;-74
2024/01/17 12:48:29;;;;;;;;;;;2.60;99.90;;;;;;4978757;28;19930;-73
2024/01/17 12:50:57;;;;;;;;;;;2.60;99.90;;;;;;4979307;28;19926;-73
2024/01/17 12:53:25;;;;;;;;;;;2.60;99.90;;;;;;4978221;28;20012;-73
2024/01/17 12:55:53;;;;;;;;;;;2.60;99.90;;;;;;4978367;28;19926;-74
2024/01/17 12:58:20;;;;;;;;;;;2.60;99.90;;;;;;4978220;28;20395;-74
2024/01/17 13:00:47;;;;;;;;;;;2.60;99.90;;;;;;4978020;28;19977;-75
2024/01/17 13:03:15;;;;;;;;;;;2.60;99.90;;;;;;4977641;28;19926;-73
2024/01/17 13:05:42;;;;;;;;;;;2.60;99.90;;;;;;4977384;28;19977;-73
2024/01/17 13:08:09;;;;;;;;;;;2.60;99.90;;;;;;4977726;28;19926;-73
2024/01/17 13:10:36;;;;;;;;;;;2.60;99.90;;;;;;4977667;28;19926;-74
2024/01/17 13:13:05;;;;;;;;;;;2.70;99.90;;;;;;4977602;28;20056;-74
2024/01/17 13:15:32;;;;;;;;;;;2.80;99.90;;;;;;4978089;28;19932;-74
2024/01/17 13:17:58;;;;;;;;;;;2.90;99.90;;;;;;4977250;28;20387;-74
2024/01/17 13:20:27;;;;;;;;;;;3.00;99.90;;;;;;4977466;28;19926;-73
2024/01/17 13:22:54;;;;;;;;;;;3.00;99.90;;;;;;4978607;28;19977;-74
2024/01/17 13:25:21;;;;;;;;;;;3.10;99.90;;;;;;4980030;28;19926;-74
2024/01/17 13:27:48;;;;;;;;;;;3.10;99.90;;;;;;4979436;28;19929;-74
2024/01/17 13:30:16;;;;;;;;;;;3.20;99.90;;;;;;4979556;28;19926;-74
2024/01/17 13:32:43;;;;;;;;;;;3.20;99.90;;;;;;4979080;28;19926;-73
2024/01/17 13:35:09;;;;;;;;;;;3.20;99.90;;;;;;4978127;28;20021;-73
2024/01/17 13:37:37;;;;;;;;;;;3.30;99.90;;;;;;4977317;28;19926;-73
2024/01/17 13:40:04;;;;;;;;;;;3.30;99.90;;;;;;4976919;28;20410;-73
2024/01/17 13:42:30;;;;;;;;;;;3.40;99.90;;;;;;4977458;28;19930;-73
2024/01/17 13:44:57;;;;;;;;;;;3.50;99.90;;;;;;4977125;28;19934;-73
2024/01/17 13:47:24;;;;;;;;;;;3.50;99.90;;;;;;4976859;28;19926;-73
2024/01/17 13:49:52;;;;;;;;;;;3.50;99.90;;;;;;4976212;28;19949;-73
2024/01/17 13:52:20;;;;;;;;;;;3.50;99.90;;;;;;4977364;28;20383;-73
2024/01/17 13:54:47;;;;;;;;;;;3.50;99.90;;;;;;4978438;28;19948;-73
2024/01/17 13:57:14;;;;;;;;;;;3.40;99.90;;;;;;4978262;28;19926;-73
2024/01/17 13:59:41;;;;;;;;;;;3.40;99.90;;;;;;4978596;28;19989;-73
2024/01/17 14:02:08;;;;;;;;;;;3.40;99.90;;;;;;4999849;28;19910;-73
2024/01/17 14:04:36;;;;;;;;;;;3.30;99.90;;;;;;4994764;28;19932;-73
2024/01/17 14:07:02;;;;;;;;;;;3.30;99.90;;;;;;4998571;28;19930;-73
2024/01/17 14:09:29;;;;;;;;;;;3.30;99.90;;;;;;4999492;28;19926;-73
2024/01/17 14:11:56;;;;;;;;;;;3.30;99.90;;;;;;4983501;28;19925;-73
2024/01/17 14:14:22;;;;;;;;;;;3.20;99.90;;;;;;4978902;28;19933;-73
2024/01/17 14:16:49;;;;;;;;;;;3.20;99.90;;;;;;4977433;28;19926;-72
2024/01/17 14:19:16;;;;;;;;;;;3.20;99.90;;;;;;4979767;28;19933;-72
2024/01/17 14:21:43;;;;;;;;;;;3.10;99.90;;;;;;4977389;28;19933;-72
2024/01/17 14:24:10;;;;;;;;;;;3.10;99.90;;;;;;4976993;28;19930;-72
2024/01/17 14:26:36;;;;;;;;;;;3.10;99.90;;;;;;4976871;28;19933;-72
2024/01/17 14:29:03;;;;;;;;;;;3.00;99.90;;;;;;4976354;28;19977;-73
2024/01/17 14:31:30;;;;;;;;;;;3.00;99.90;;;;;;4976312;28;19934;-73
2024/01/17 14:33:56;;;;;;;;;;;3.00;99.90;;;;;;4976209;28;19926;-73
2024/01/17 14:36:23;;;;;;;;;;;2.90;99.90;;;;;;4975844;28;20435;-73
2024/01/17 14:38:50;;;;;;;;;;;2.90;99.90;;;;;;4976009;28;19933;-73
2024/01/17 14:41:22;;;;;;;;;;;2.80;99.90;;;;;;4976218;28;19926;-73
2024/01/17 14:43:49;;;;;;;;;;;2.80;99.90;;;;;;4975565;28;20316;-73
2024/01/17 14:46:15;;;;;;;;;;;2.80;99.90;;;;;;4975585;28;20311;-73
2024/01/17 14:48:42;;;;;;;;;;;2.80;99.90;;;;;;4975823;28;19930;-73
2024/01/17 14:51:08;;;;;;;;;;;2.80;99.90;;;;;;4979817;28;19926;-73
2024/01/17 14:53:35;;;;;;;;;;;2.80;99.90;;;;;;4985697;28;19910;-73
2024/01/17 14:56:03;;;;;;;;;;;2.80;99.90;;;;;;5000480;28;19922;-74
2024/01/17 14:58:30;;;;;;;;;;;2.70;99.90;;;;;;5000367;28;19910;-74
2024/01/17 15:00:58;;;;;;;;;;;2.70;99.90;;;;;;4998192;28;19926;-72
2024/01/17 15:03:27;;;;;;;;;;;2.70;99.90;;;;;;4988718;28;19926;-73
2024/01/17 15:05:53;;;;;;;;;;;2.80;99.90;;;;;;4982851;28;19932;-73
2024/01/17 15:08:23;;;;;;;;;;;2.70;99.90;;;;;;4976864;28;19926;-73
2024/01/17 15:10:49;;;;;;;;;;;2.80;99.90;;;;;;4976830;28;19948;-73
2024/01/17 15:13:19;;;;;;;;;;;2.80;99.90;;;;;;4976747;28;19926;-73
2024/01/17 15:15:46;;;;;;;;;;;2.70;99.90;;;;;;4977273;28;19984;-73
2024/01/17 15:18:13;;;;;;;;;;;2.80;99.90;;;;;;4976776;28;19933;-73
2024/01/17 15:20:39;;;;;;;;;;;2.70;99.90;;;;;;4978740;28;20379;-73
2024/01/17 15:23:06;;;;;;;;;;;2.70;99.90;;;;;;4977603;28;19932;-73
2024/01/17 15:25:33;;;;;;;;;;;2.70;99.90;;;;;;4977205;28;19926;-74
2024/01/17 15:28:00;;;;;;;;;;;2.70;99.90;;;;;;4977782;28;19930;-73
2024/01/17 15:30:28;;;;;;;;;;;2.70;99.90;;;;;;4979761;28;19977;-73
2024/01/17 15:32:55;;;;;;;;;;;2.70;99.90;;;;;;4976894;28;20311;-74
2024/01/17 15:35:22;;;;;;;;;;;2.70;99.90;;;;;;4976293;28;19930;-73
2024/01/17 15:37:49;;;;;;;;;;;2.60;99.90;;;;;;4976689;28;19933;-73
2024/01/17 15:40:16;;;;;;;;;;;2.70;99.90;;;;;;4976162;28;19926;-73
2024/01/17 15:42:42;;;;;;;;;;;2.70;99.90;;;;;;4976153;28;19969;-73
2024/01/17 15:45:09;;;;;;;;;;;2.70;99.90;;;;;;4976560;28;19926;-75
2024/01/17 15:47:37;;;;;;;;;;;2.70;99.90;;;;;;4977311;28;19926;-76
2024/01/17 15:50:07;;;;;;;;;;;2.70;99.90;;;;;;4977272;28;19926;-76
2024/01/17 15:52:34;;;;;;;;;;;2.60;99.90;;;;;;4977646;28;19926;-76
2024/01/17 15:55:01;;;;;;;;;;;2.60;99.90;;;;;;4977671;28;20337;-76
2024/01/17 15:57:28;;;;;;;;;;;2.60;99.90;;;;;;4975969;28;20054;-76
2024/01/17 15:59:55;;;;;;;;;;;2.60;99.90;;;;;;4974890;28;20388;-77
2024/01/17 16:02:22;;;;;;;;;;;2.50;99.90;;;;;;4974855;28;19930;-76
2024/01/17 16:04:50;;;;;;;;;;;2.50;99.90;;;;;;4974803;28;19926;-76
2024/01/17 16:07:17;;;;;;;;;;;2.50;99.90;;;;;;4975946;28;19926;-76
2024/01/17 16:09:47;;;;;;;;;;;2.50;99.90;;;;;;4974661;28;20410;-76
2024/01/17 16:12:14;;;;;;;;;;;2.50;99.90;;;;;;4976973;28;20295;-77
2024/01/17 16:14:40;;;;;;;;;;;2.50;99.90;;;;;;4978972;28;19926;-77
2024/01/17 16:17:08;;;;;;;;;;;2.50;99.90;;;;;;4979527;28;19933;-76
2024/01/17 16:19:34;;;;;;;;;;;2.40;99.90;;;;;;4979399;28;19926;-76
2024/01/17 16:22:02;;;;;;;;;;;2.40;99.90;;;;;;4979145;28;19926;-75
2024/01/17 16:24:29;;;;;;;;;;;2.40;99.90;;;;;;4978931;28;19926;-75
2024/01/17 16:26:55;;;;;;;;;;;2.30;99.90;;;;;;4978588;28;19926;-76
2024/01/17 16:29:22;;;;;;;;;;;2.30;99.90;;;;;;4978948;28;19930;-76
2024/01/17 16:31:49;;;;;;;;;;;2.20;99.90;;;;;;4979208;28;19934;-77
2024/01/17 16:34:16;;;;;;;;;;;2.30;99.90;;;;;;4978988;28;19949;-76
2024/01/17 16:36:42;;;;;;;;;;;2.30;99.90;;;;;;4978650;28;19936;-77
2024/01/17 16:39:12;;;;;;;;;;;2.30;99.90;;;;;;4978813;28;19926;-77
2024/01/17 16:41:38;;;;;;;;;;;2.30;99.90;;;;;;4978621;28;19926;-76
2024/01/17 16:44:05;;;;;;;;;;;2.30;99.90;;;;;;4978503;28;19976;-76
2024/01/17 16:46:31;;;;;;;;;;;2.30;99.90;;;;;;4978488;28;19926;-77
2024/01/17 16:48:58;;;;;;;;;;;2.30;99.90;;;;;;4978435;28;19969;-77
2024/01/17 16:51:25;;;;;;;;;;;2.30;99.90;;;;;;4979107;28;19925;-76
2024/01/17 16:53:51;;;;;;;;;;;2.40;99.90;;;;;;4978657;28;19949;-76
2024/01/17 16:56:22;;;;;;;;;;;2.30;99.90;;;;;;4978651;28;19930;-77
2024/01/17 16:58:49;;;;;;;;;;;2.30;99.90;;;;;;4978836;28;19934;-77
2024/01/17 17:01:15;;;;;;;;;;;2.30;99.90;;;;;;4978911;28;20296;-73
2024/01/17 17:03:42;;;;;;;;;;;2.40;99.90;;;;;;4978929;28;20013;-73
2024/01/17 17:06:08;;;;;;;;;;;2.40;99.90;;;;;;4979036;28;19926;-74
2024/01/17 17:08:35;;;;;;;;;;;2.40;99.90;;;;;;4978639;28;19933;-73
2024/01/17 17:11:02;;;;;;;;;;;2.40;99.90;;;;;;4978215;28;19926;-73
2024/01/17 17:13:29;;;;;;;;;;;2.40;99.90;;;;;;4978135;28;20312;-73
2024/01/17 17:15:56;;;;;;;;;;;2.50;99.90;;;;;;4977306;28;20388;-73
2024/01/17 17:18:23;;;;;;;;;;;2.50;99.90;;;;;;4979657;28;19961;-78
2024/01/17 17:20:49;;;;;;;;;;;2.60;99.90;;;;;;4979924;28;19933;-78
2024/01/17 17:23:16;;;;;;;;;;;2.60;99.90;;;;;;4980152;28;19933;-77
2024/01/17 17:25:43;;;;;;;;;;;2.60;99.90;;;;;;4980430;28;19933;-77
2024/01/17 17:28:09;;;;;;;;;;;2.70;99.90;;;;;;4979489;28;19926;-76
2024/01/17 17:30:39;;;;;;;;;;;2.70;99.90;;;;;;4979819;28;19926;-77
2024/01/17 17:33:07;;;;;;;;;;;2.70;99.90;;;;;;4980803;28;19961;-77
2024/01/17 17:35:34;;;;;;;;;;;2.70;99.90;;;;;;4980580;28;19933;-77
2024/01/17 17:38:00;;;;;;;;;;;2.70;99.90;;;;;;4981613;28;20296;-76
2024/01/17 17:40:27;;;;;;;;;;;2.70;99.90;;;;;;4983705;28;19926;-78
2024/01/17 17:42:53;;;;;;;;;;;2.70;99.90;;;;;;4981882;28;19997;-78
2024/01/17 17:45:20;;;;;;;;;;;2.70;99.90;;;;;;4982346;28;19926;-76
2024/01/17 17:47:48;;;;;;;;;;;2.70;99.90;;;;;;4984105;28;20272;-76
2024/01/17 17:50:16;;;;;;;;;;;2.70;99.90;;;;;;4982101;28;20281;-76
2024/01/17 17:52:43;;;;;;;;;;;2.70;99.90;;;;;;4981287;28;19930;-76
2024/01/17 17:55:09;;;;;;;;;;;2.80;99.90;;;;;;4982497;28;19927;-76
2024/01/17 17:57:37;;;;;;;;;;;2.80;99.90;;;;;;4981641;28;19927;-74
2024/01/17 18:00:04;;;;;;;;;;;2.80;99.90;;;;;;4979054;28;19930;-74
2024/01/17 18:02:31;;;;;;;;;;;2.80;99.90;;;;;;4978743;28;20329;-74
2024/01/17 18:04:59;;;;;;;;;;;2.80;99.90;;;;;;4978594;28;19933;-75
2024/01/17 18:07:25;;;;;;;;;;;2.80;99.90;;;;;;4979585;28;19926;-75
2024/01/17 18:09:52;;;;;;;;;;;2.80;99.90;;;;;;4978224;28;19927;-75
2024/01/17 18:12:18;;;;;;;;;;;2.80;99.90;;;;;;4978813;28;19926;-76
2024/01/17 18:14:45;;;;;;;;;;;2.80;99.90;;;;;;4978693;28;19930;-76
2024/01/17 18:17:14;;;;;;;;;;;2.80;99.90;;;;;;5000567;23;19925;-71
2024/01/17 18:19:43;;;;;;;;;;;2.80;99.90;;;;;;4977724;28;19933;-73
2024/01/17 18:22:11;;;;;;;;;;;2.80;99.90;;;;;;4977098;28;19976;-73
2024/01/17 18:24:38;;;;;;;;;;;2.80;99.90;;;;;;4977364;28;19932;-73
2024/01/17 18:27:05;;;;;;;;;;;2.80;99.90;;;;;;4976550;28;19926;-73
2024/01/17 18:29:31;;;;;;;;;;;2.80;99.90;;;;;;4977153;28;19933;-73
2024/01/17 18:31:58;;;;;;;;;;;2.70;99.90;;;;;;4976651;28;19933;-73
2024/01/17 18:34:27;;;;;;;;;;;2.70;99.90;;;;;;4976238;28;19930;-73
2024/01/17 18:36:54;;;;;;;;;;;2.70;99.90;;;;;;4977704;28;19977;-73
2024/01/17 18:39:21;;;;;;;;;;;2.70;99.90;;;;;;4977233;28;19933;-72
2024/01/17 18:41:52;;;;;;;;;;;2.70;99.90;;;;;;4977995;28;19926;-74
2024/01/17 18:44:21;;;;;;;;;;;2.70;99.90;;;;;;4978211;28;19926;-75
2024/01/17 18:46:48;;;;;;;;;;;2.70;99.90;;;;;;4977626;28;19933;-74
2024/01/17 18:49:16;;;;;;;;;;;2.80;99.90;;;;;;4977869;28;19977;-74
2024/01/17 18:51:46;;;;;;;;;;;2.60;99.90;;;;;;4977496;28;19930;-74
2024/01/17 18:54:12;;;;;;;;;;;2.80;99.90;;;;;;4976586;28;20379;-73
2024/01/17 18:56:40;;;;;;;;;;;2.90;99.90;;;;;;4975974;28;19926;-73
2024/01/17 18:59:07;;;;;;;;;;;2.90;99.90;;;;;;4976100;28;19926;-73
2024/01/17 19:01:34;;;;;;;;;;;3.00;99.90;;;;;;4976015;28;19933;-72
2024/01/17 19:04:00;;;;;;;;;;;3.00;99.90;;;;;;4976405;28;19926;-73
2024/01/17 19:06:27;;;;;;;;;;;3.10;99.90;;;;;;4975768;28;20359;-73
2024/01/17 19:08:54;;;;;;;;;;;3.10;99.90;;;;;;4976207;28;19926;-73
2024/01/17 19:11:21;;;;;;;;;;;3.10;99.90;;;;;;4976259;28;19926;-73
2024/01/17 19:13:49;;;;;;;;;;;3.10;99.90;;;;;;4976228;28;19926;-73
2024/01/17 19:16:16;;;;;;;;;;;3.10;99.90;;;;;;4975510;28;20404;-73
2024/01/17 19:18:42;;;;;;;;;;;3.10;99.90;;;;;;4976888;28;19989;-73
2024/01/17 19:21:12;;;;;;;;;;;3.10;99.90;;;;;;4977211;28;19926;-74
2024/01/17 19:23:38;;;;;;;;;;;3.20;99.90;;;;;;4976782;28;19926;-73
2024/01/17 19:26:20;;;;;;;;;;;3.20;99.90;;;;;;4976191;28;19945;-74
2024/01/17 19:28:48;;;;;;;;;;;3.30;99.90;;;;;;4976547;28;20383;-74
2024/01/17 19:31:15;;;;;;;;;;;3.20;99.90;;;;;;4977356;28;19937;-74
2024/01/17 19:33:42;;;;;;;;;;;3.30;99.90;;;;;;4977809;28;19932;-74
2024/01/17 19:36:09;;;;;;;;;;;3.20;99.90;;;;;;4976298;28;19926;-74
2024/01/17 19:38:35;;;;;;;;;;;3.30;99.90;;;;;;4976037;28;20001;-75
2024/01/17 19:41:02;;;;;;;;;;;3.20;99.90;;;;;;4975851;28;19926;-74
2024/01/17 19:43:28;;;;;;;;;;;3.20;99.90;;;;;;4975679;28;19937;-73
2024/01/17 19:45:56;;;;;;;;;;;3.20;99.90;;;;;;4975955;28;20003;-74
2024/01/17 19:48:23;;;;;;;;;;;3.20;99.90;;;;;;4976698;28;19926;-74
2024/01/17 19:50:49;;;;;;;;;;;3.20;99.90;;;;;;4975587;28;19926;-73
2024/01/17 19:53:17;;;;;;;;;;;3.30;99.90;;;;;;4976260;28;19926;-71
2024/01/17 19:55:44;;;;;;;;;;;3.30;99.90;;;;;;4976262;28;19973;-72
2024/01/17 19:58:10;;;;;;;;;;;3.30;99.90;;;;;;4975162;28;19942;-71
2024/01/17 20:00:37;;;;;;;;;;;3.30;99.90;;;;;;4975606;28;19933;-71
2024/01/17 20:03:05;;;;;;;;;;;3.40;99.90;;;;;;4975399;28;19949;-73
2024/01/17 20:05:32;;;;;;;;;;;3.30;99.90;;;;;;4975491;28;19926;-74
2024/01/17 20:07:58;;;;;;;;;;;3.40;99.90;;;;;;4975140;28;19926;-75
2024/01/17 20:10:26;;;;;;;;;;;3.40;99.90;;;;;;4975273;28;19927;-75
2024/01/17 20:12:56;;;;;;;;;;;3.40;99.90;;;;;;4975418;28;19926;-76
2024/01/17 20:15:23;;;;;;;;;;;3.40;99.90;;;;;;4976398;28;19934;-75
2024/01/17 20:17:50;;;;;;;;;;;3.50;99.90;;;;;;4976404;28;19926;-75
2024/01/17 20:20:18;;;;;;;;;;;3.50;99.90;;;;;;4975762;28;19926;-75
2024/01/17 20:22:45;;;;;;;;;;;3.50;99.90;;;;;;4975164;28;19926;-75
2024/01/17 20:25:13;;;;;;;;;;;3.50;99.90;;;;;;4976609;28;19933;-75
2024/01/17 20:27:40;;;;;;;;;;;3.50;99.90;;;;;;4977088;28;19998;-75
2024/01/17 20:30:08;;;;;;;;;;;3.50;99.90;;;;;;4976678;28;20299;-75
2024/01/17 20:32:34;;;;;;;;;;;3.60;99.90;;;;;;4976714;28;19926;-75
2024/01/17 20:35:01;;;;;;;;;;;3.60;99.90;;;;;;4976632;28;20331;-74
2024/01/17 20:37:29;;;;;;;;;;;3.60;99.90;;;;;;4976382;28;19977;-75
2024/01/17 20:39:55;;;;;;;;;;;3.60;99.90;;;;;;4976288;28;19926;-74
2024/01/17 20:42:22;;;;;;;;;;;3.70;99.90;;;;;;4976443;28;19926;-75
2024/01/17 20:44:48;;;;;;;;;;;3.70;99.90;;;;;;4997454;23;19933;-77
2024/01/17 20:47:15;;;;;;;;;;;3.70;99.90;;;;;;4975304;28;19937;-76
2024/01/17 20:49:43;;;;;;;;;;;3.80;99.90;;;;;;4974659;28;20303;-76
2024/01/17 20:52:10;;;;;;;;;;;3.80;99.90;;;;;;4975303;28;19926;-75
2024/01/17 20:54:38;;;;;;;;;;;3.70;99.90;;;;;;4975132;28;19926;-76
2024/01/17 20:57:04;;;;;;;;;;;3.80;99.90;;;;;;4974737;28;19934;-76
2024/01/17 20:59:31;;;;;;;;;;;3.80;99.90;;;;;;4978370;28;19933;-77
2024/01/17 21:01:58;;;;;;;;;;;3.80;99.90;;;;;;4978467;28;19933;-76
2024/01/17 21:04:24;;;;;;;;;;;3.70;99.90;;;;;;4978616;28;19926;-77
2024/01/17 21:06:51;;;;;;;;;;;3.70;99.90;;;;;;4978652;28;19926;-77
2024/01/17 21:09:18;;;;;;;;;;;3.70;99.90;;;;;;4978686;28;20012;-76
2024/01/17 21:11:46;;;;;;;;;;;3.70;99.90;;;;;;4978188;28;19933;-77
2024/01/17 21:14:12;;;;;;;;;;;3.70;99.90;;;;;;4978003;28;19926;-77
2024/01/17 21:16:39;;;;;;;;;;;3.70;99.90;;;;;;4978652;28;19932;-76
2024/01/17 21:19:07;;;;;;;;;;;3.70;99.90;;;;;;4978174;28;19930;-76
2024/01/17 21:21:39;;;;;;;;;;;3.70;99.90;;;;;;4978651;28;19935;-76
2024/01/17 21:24:05;;;;;;;;;;;3.60;99.90;;;;;;4979140;28;20565;-77
2024/01/17 21:26:32;;;;;;;;;;;3.60;99.90;;;;;;4979994;28;20399;-76
2024/01/17 21:29:01;;;;;;;;;;;3.60;99.90;;;;;;4979721;28;19949;-76
2024/01/17 21:31:28;;;;;;;;;;;3.60;99.90;;;;;;4978501;28;19926;-76
2024/01/17 21:33:54;;;;;;;;;;;3.60;99.90;;;;;;4977685;28;20404;-76
2024/01/17 21:36:21;;;;;;;;;;;3.60;99.90;;;;;;4978377;28;19932;-76
2024/01/17 21:38:48;;;;;;;;;;;3.70;99.90;;;;;;4978226;28;19981;-76
2024/01/17 21:41:14;;;;;;;;;;;3.70;99.90;;;;;;4977919;28;19932;-77
2024/01/17 21:43:41;;;;;;;;;;;3.70;99.90;;;;;;4977954;28;19925;-76
2024/01/17 21:46:09;;;;;;;;;;;3.70;99.90;;;;;;4978652;28;19933;-76
2024/01/17 21:48:37;;;;;;;;;;;3.70;99.90;;;;;;4978217;28;19930;-75
2024/01/17 21:51:03;;;;;;;;;;;3.60;99.90;;;;;;4977850;28;19930;-75
2024/01/17 21:53:30;;;;;;;;;;;3.60;99.90;;;;;;4978085;28;19934;-75
2024/01/17 21:55:57;;;;;;;;;;;3.60;99.90;;;;;;4978106;28;19933;-75
2024/01/17 21:58:24;;;;;;;;;;;3.70;99.90;;;;;;4978042;28;19926;-76
2024/01/17 22:00:51;;;;;;;;;;;3.60;99.90;;;;;;5001407;28;19930;-74
2024/01/17 22:03:19;;;;;;;;;;;3.70;99.90;;;;;;5001754;28;19910;-75
2024/01/17 22:05:46;;;;;;;;;;;3.70;99.90;;;;;;5001864;28;19910;-75
2024/01/17 22:08:13;;;;;;;;;;;3.70;99.90;;;;;;5001753;28;19930;-76
2024/01/17 22:10:39;;;;;;;;;;;3.70;99.90;;;;;;5000735;28;19930;-75
2024/01/17 22:13:06;;;;;;;;;;;3.80;99.90;;;;;;5001464;28;19918;-75
2024/01/17 22:15:32;;;;;;;;;;;3.70;99.90;;;;;;4996544;28;19933;-77
2024/01/17 22:17:59;;;;;;;;;;;3.70;99.90;;;;;;4993573;28;19933;-77
2024/01/17 22:20:29;;;;;;;;;;;3.70;99.90;;;;;;5000723;28;19926;-76
2024/01/17 22:22:56;;;;;;;;;;;3.70;99.90;;;;;;5001348;28;19910;-75
2024/01/17 22:25:24;;;;;;;;;;;3.70;99.90;;;;;;5000974;28;19917;-76
2024/01/17 22:27:51;;;;;;;;;;;3.70;99.90;;;;;;5001204;28;19942;-76
2024/01/17 22:30:17;;;;;;;;;;;3.70;99.90;;;;;;5001230;28;19945;-75
2024/01/17 22:32:44;;;;;;;;;;;3.80;99.90;;;;;;5001299;28;19925;-75
2024/01/17 22:35:10;;;;;;;;;;;3.70;99.90;;;;;;5001074;28;19924;-74
2024/01/17 22:37:38;;;;;;;;;;;3.70;99.90;;;;;;5001216;28;19929;-75
2024/01/17 22:40:05;;;;;;;;;;;3.70;99.90;;;;;;5001227;28;19910;-75
2024/01/17 22:42:32;;;;;;;;;;;3.70;99.90;;;;;;4981478;28;19926;-76
2024/01/17 22:44:58;;;;;;;;;;;3.70;99.90;;;;;;4976529;28;19926;-76
2024/01/17 22:47:25;;;;;;;;;;;3.70;99.90;;;;;;4977070;28;19926;-76
2024/01/17 22:49:51;;;;;;;;;;;3.60;99.90;;;;;;4977079;28;19933;-76
2024/01/17 22:52:18;;;;;;;;;;;3.70;99.90;;;;;;4976501;28;20283;-76
2024/01/17 22:54:46;;;;;;;;;;;3.70;99.90;;;;;;4976421;28;19926;-76
2024/01/17 22:57:13;;;;;;;;;;;3.70;99.90;;;;;;4976389;28;19930;-76
2024/01/17 22:59:39;;;;;;;;;;;3.70;99.90;;;;;;4976203;28;19926;-76
2024/01/17 23:02:06;;;;;;;;;;;3.70;99.90;;;;;;4975947;28;19933;-76
2024/01/17 23:04:32;;;;;;;;;;;3.70;99.90;;;;;;4975664;28;19926;-75
